sensor_id;sensor_type;location;lat;lon;timestamp;P1;P2;P0
70691;PMS5003;58267;51.156;17.044;2024-01-30T00:00:08;71;61;
70691;PMS5003;58267;51.156;17.044;2024-01-30T00:02:33;63;59;
70691;PMS5003;58267;51.156;17.044;2024-01-30T00:04:59;66;61;
70691;PMS5003;58267;51.156;17.044;2024-01-30T00:07:24;56;54;
70691;PMS5003;58267;51.156;17.044;2024-01-30T00:09:49;67;61;
70691;PMS5003;58267;51.156;17.044;2024-01-30T00:12:15;60;55;
70691;PMS5003;58267;51.156;17.044;2024-01-30T00:14:41;53;50;
70691;PMS5003;58267;51.156;17.044;2024-01-30T00:17:07;53;47;
70691;PMS5003;58267;51.156;17.044;2024-01-30T00:19:32;51;45;
70691;PMS5003;58267;51.156;17.044;2024-01-30T00:21:57;62;54;
70691;PMS5003;58267;51.156;17.044;2024-01-30T00:24:23;50;46;
70691;PMS5003;58267;51.156;17.044;2024-01-30T00:26:49;47;40;
70691;PMS5003;58267;51.156;17.044;2024-01-30T00:29:14;46;43;
70691;PMS5003;58267;51.156;17.044;2024-01-30T00:31:39;47;43;
70691;PMS5003;58267;51.156;17.044;2024-01-30T00:34:05;46;45;
70691;PMS5003;58267;51.156;17.044;2024-01-30T00:36:31;51;47;
70691;PMS5003;58267;51.156;17.044;2024-01-30T00:38:56;47;42;
70691;PMS5003;58267;51.156;17.044;2024-01-30T00:41:22;46;43;
70691;PMS5003;58267;51.156;17.044;2024-01-30T00:43:47;47;44;
70691;PMS5003;58267;51.156;17.044;2024-01-30T00:46:13;54;52;
70691;PMS5003;58267;51.156;17.044;2024-01-30T00:48:38;49;48;
70691;PMS5003;58267;51.156;17.044;2024-01-30T00:51:04;36;34;
70691;PMS5003;58267;51.156;17.044;2024-01-30T00:53:29;40;38;
70691;PMS5003;58267;51.156;17.044;2024-01-30T00:55:55;56;51;
70691;PMS5003;58267;51.156;17.044;2024-01-30T00:58:21;50;43;
70691;PMS5003;58267;51.156;17.044;2024-01-30T01:00:47;44;39;
70691;PMS5003;58267;51.156;17.044;2024-01-30T01:03:12;48;47;
70691;PMS5003;58267;51.156;17.044;2024-01-30T01:05:37;56;54;
70691;PMS5003;58267;51.156;17.044;2024-01-30T01:08:03;43;42;
70691;PMS5003;58267;51.156;17.044;2024-01-30T01:10:29;50;46;
70691;PMS5003;58267;51.156;17.044;2024-01-30T01:12:54;51;48;
70691;PMS5003;58267;51.156;17.044;2024-01-30T01:15:20;57;53;
70691;PMS5003;58267;51.156;17.044;2024-01-30T01:17:45;55;49;
70691;PMS5003;58267;51.156;17.044;2024-01-30T01:20:11;54;48;
70691;PMS5003;58267;51.156;17.044;2024-01-30T01:22:37;55;50;
70691;PMS5003;58267;51.156;17.044;2024-01-30T01:25:02;56;49;
70691;PMS5003;58267;51.156;17.044;2024-01-30T01:27:27;42;40;
70691;PMS5003;58267;51.156;17.044;2024-01-30T01:29:52;59;53;
70691;PMS5003;58267;51.156;17.044;2024-01-30T01:32:18;60;54;
70691;PMS5003;58267;51.156;17.044;2024-01-30T01:34:43;60;50;
70691;PMS5003;58267;51.156;17.044;2024-01-30T01:37:09;56;53;
70691;PMS5003;58267;51.156;17.044;2024-01-30T01:39:34;56;53;
70691;PMS5003;58267;51.156;17.044;2024-01-30T01:41:59;54;49;
70691;PMS5003;58267;51.156;17.044;2024-01-30T01:44:24;63;56;
70691;PMS5003;58267;51.156;17.044;2024-01-30T01:46:50;58;56;
70691;PMS5003;58267;51.156;17.044;2024-01-30T01:49:15;55;49;
70691;PMS5003;58267;51.156;17.044;2024-01-30T01:51:40;47;43;
70691;PMS5003;58267;51.156;17.044;2024-01-30T01:54:06;62;59;
70691;PMS5003;58267;51.156;17.044;2024-01-30T01:56:32;63;61;
70691;PMS5003;58267;51.156;17.044;2024-01-30T01:58:59;68;60;
70691;PMS5003;58267;51.156;17.044;2024-01-30T02:01:22;50;48;
70691;PMS5003;58267;51.156;17.044;2024-01-30T02:03:48;48;46;
70691;PMS5003;58267;51.156;17.044;2024-01-30T02:06:14;52;49;
70691;PMS5003;58267;51.156;17.044;2024-01-30T02:08:39;56;49;
70691;PMS5003;58267;51.156;17.044;2024-01-30T02:11:04;57;55;
70691;PMS5003;58267;51.156;17.044;2024-01-30T02:13:30;56;55;
70691;PMS5003;58267;51.156;17.044;2024-01-30T02:15:55;60;53;
70691;PMS5003;58267;51.156;17.044;2024-01-30T02:18:21;57;51;
70691;PMS5003;58267;51.156;17.044;2024-01-30T02:20:46;62;58;
70691;PMS5003;58267;51.156;17.044;2024-01-30T02:23:12;61;60;
70691;PMS5003;58267;51.156;17.044;2024-01-30T02:25:38;48;47;
70691;PMS5003;58267;51.156;17.044;2024-01-30T02:28:03;51;48;
70691;PMS5003;58267;51.156;17.044;2024-01-30T02:30:28;53;50;
70691;PMS5003;58267;51.156;17.044;2024-01-30T02:32:54;54;51;
70691;PMS5003;58267;51.156;17.044;2024-01-30T02:35:19;61;56;
70691;PMS5003;58267;51.156;17.044;2024-01-30T02:37:45;50;50;
70691;PMS5003;58267;51.156;17.044;2024-01-30T02:40:11;57;53;
70691;PMS5003;58267;51.156;17.044;2024-01-30T02:42:36;54;53;
70691;PMS5003;58267;51.156;17.044;2024-01-30T02:45:02;55;53;
70691;PMS5003;58267;51.156;17.044;2024-01-30T02:47:27;57;53;
70691;PMS5003;58267;51.156;17.044;2024-01-30T02:49:52;59;51;
70691;PMS5003;58267;51.156;17.044;2024-01-30T02:52:18;48;46;
70691;PMS5003;58267;51.156;17.044;2024-01-30T02:54:44;45;44;
70691;PMS5003;58267;51.156;17.044;2024-01-30T02:57:09;50;48;
70691;PMS5003;58267;51.156;17.044;2024-01-30T02:59:34;56;50;
70691;PMS5003;58267;51.156;17.044;2024-01-30T03:02:00;54;51;
70691;PMS5003;58267;51.156;17.044;2024-01-30T03:04:25;55;50;
70691;PMS5003;58267;51.156;17.044;2024-01-30T03:06:51;43;41;
70691;PMS5003;58267;51.156;17.044;2024-01-30T03:09:16;42;39;
70691;PMS5003;58267;51.156;17.044;2024-01-30T03:11:42;64;61;
70691;PMS5003;58267;51.156;17.044;2024-01-30T03:14:07;62;57;
70691;PMS5003;58267;51.156;17.044;2024-01-30T03:16:32;63;60;
70691;PMS5003;58267;51.156;17.044;2024-01-30T03:18:58;70;66;
70691;PMS5003;58267;51.156;17.044;2024-01-30T03:21:23;56;52;
70691;PMS5003;58267;51.156;17.044;2024-01-30T03:23:48;57;54;
70691;PMS5003;58267;51.156;17.044;2024-01-30T03:26:14;55;51;
70691;PMS5003;58267;51.156;17.044;2024-01-30T03:28:39;51;48;
70691;PMS5003;58267;51.156;17.044;2024-01-30T03:31:05;54;46;
70691;PMS5003;58267;51.156;17.044;2024-01-30T03:33:30;48;46;
70691;PMS5003;58267;51.156;17.044;2024-01-30T03:35:56;46;44;
70691;PMS5003;58267;51.156;17.044;2024-01-30T03:38:21;52;51;
70691;PMS5003;58267;51.156;17.044;2024-01-30T03:40:46;48;46;
70691;PMS5003;58267;51.156;17.044;2024-01-30T03:43:12;45;41;
70691;PMS5003;58267;51.156;17.044;2024-01-30T03:45:37;50;48;
70691;PMS5003;58267;51.156;17.044;2024-01-30T03:48:02;43;43;
70691;PMS5003;58267;51.156;17.044;2024-01-30T03:50:28;49;48;
70691;PMS5003;58267;51.156;17.044;2024-01-30T03:52:53;46;44;
70691;PMS5003;58267;51.156;17.044;2024-01-30T03:55:19;45;41;
70691;PMS5003;58267;51.156;17.044;2024-01-30T03:57:44;48;45;
70691;PMS5003;58267;51.156;17.044;2024-01-30T04:00:10;47;45;
70691;PMS5003;58267;51.156;17.044;2024-01-30T04:02:35;47;45;
70691;PMS5003;58267;51.156;17.044;2024-01-30T04:05:00;45;43;
70691;PMS5003;58267;51.156;17.044;2024-01-30T04:07:26;49;47;
70691;PMS5003;58267;51.156;17.044;2024-01-30T04:09:51;51;46;
70691;PMS5003;58267;51.156;17.044;2024-01-30T04:12:17;45;44;
70691;PMS5003;58267;51.156;17.044;2024-01-30T04:14:42;55;50;
70691;PMS5003;58267;51.156;17.044;2024-01-30T04:17:08;54;50;
70691;PMS5003;58267;51.156;17.044;2024-01-30T04:19:36;53;47;
70691;PMS5003;58267;51.156;17.044;2024-01-30T04:21:59;52;45;
70691;PMS5003;58267;51.156;17.044;2024-01-30T04:24:24;45;41;
70691;PMS5003;58267;51.156;17.044;2024-01-30T04:26:50;48;46;
70691;PMS5003;58267;51.156;17.044;2024-01-30T04:29:15;53;52;
70691;PMS5003;58267;51.156;17.044;2024-01-30T04:31:41;51;46;
70691;PMS5003;58267;51.156;17.044;2024-01-30T04:34:07;52;45;
70691;PMS5003;58267;51.156;17.044;2024-01-30T04:36:33;57;54;
70691;PMS5003;58267;51.156;17.044;2024-01-30T04:38:58;49;48;
70691;PMS5003;58267;51.156;17.044;2024-01-30T04:41:24;54;51;
70691;PMS5003;58267;51.156;17.044;2024-01-30T04:43:49;51;47;
70691;PMS5003;58267;51.156;17.044;2024-01-30T04:46:14;46;44;
70691;PMS5003;58267;51.156;17.044;2024-01-30T04:48:40;52;47;
70691;PMS5003;58267;51.156;17.044;2024-01-30T04:51:06;47;45;
70691;PMS5003;58267;51.156;17.044;2024-01-30T04:53:31;47;44;
70691;PMS5003;58267;51.156;17.044;2024-01-30T04:55:57;51;47;
70691;PMS5003;58267;51.156;17.044;2024-01-30T04:58:23;44;42;
70691;PMS5003;58267;51.156;17.044;2024-01-30T05:00:48;49;47;
70691;PMS5003;58267;51.156;17.044;2024-01-30T05:03:13;51;48;
70691;PMS5003;58267;51.156;17.044;2024-01-30T05:05:39;57;53;
70691;PMS5003;58267;51.156;17.044;2024-01-30T05:08:04;78;73;
70691;PMS5003;58267;51.156;17.044;2024-01-30T05:10:30;70;64;
70691;PMS5003;58267;51.156;17.044;2024-01-30T05:12:56;73;71;
70691;PMS5003;58267;51.156;17.044;2024-01-30T05:15:21;69;63;
70691;PMS5003;58267;51.156;17.044;2024-01-30T05:17:47;64;60;
70691;PMS5003;58267;51.156;17.044;2024-01-30T05:20:12;64;63;
70691;PMS5003;58267;51.156;17.044;2024-01-30T05:22:37;60;58;
70691;PMS5003;58267;51.156;17.044;2024-01-30T05:25:04;67;62;
70691;PMS5003;58267;51.156;17.044;2024-01-30T05:27:29;53;49;
70691;PMS5003;58267;51.156;17.044;2024-01-30T05:29:54;60;57;
70691;PMS5003;58267;51.156;17.044;2024-01-30T05:32:20;52;48;
70691;PMS5003;58267;51.156;17.044;2024-01-30T05:34:45;63;53;
70691;PMS5003;58267;51.156;17.044;2024-01-30T05:37:11;57;53;
70691;PMS5003;58267;51.156;17.044;2024-01-30T05:39:36;57;52;
70691;PMS5003;58267;51.156;17.044;2024-01-30T05:42:03;61;59;
70691;PMS5003;58267;51.156;17.044;2024-01-30T05:44:28;61;52;
70691;PMS5003;58267;51.156;17.044;2024-01-30T05:46:54;62;57;
70691;PMS5003;58267;51.156;17.044;2024-01-30T05:49:19;55;53;
70691;PMS5003;58267;51.156;17.044;2024-01-30T05:51:45;63;57;
70691;PMS5003;58267;51.156;17.044;2024-01-30T05:54:10;60;56;
70691;PMS5003;58267;51.156;17.044;2024-01-30T05:56:35;61;56;
70691;PMS5003;58267;51.156;17.044;2024-01-30T05:59:01;61;57;
70691;PMS5003;58267;51.156;17.044;2024-01-30T06:01:26;68;62;
70691;PMS5003;58267;51.156;17.044;2024-01-30T06:03:51;73;64;
70691;PMS5003;58267;51.156;17.044;2024-01-30T06:06:17;67;61;
70691;PMS5003;58267;51.156;17.044;2024-01-30T06:08:43;73;69;
70691;PMS5003;58267;51.156;17.044;2024-01-30T06:11:09;72;69;
70691;PMS5003;58267;51.156;17.044;2024-01-30T06:13:34;67;62;
70691;PMS5003;58267;51.156;17.044;2024-01-30T06:16:00;74;68;
70691;PMS5003;58267;51.156;17.044;2024-01-30T06:18:26;79;67;
70691;PMS5003;58267;51.156;17.044;2024-01-30T06:20:51;69;64;
70691;PMS5003;58267;51.156;17.044;2024-01-30T06:23:16;74;65;
70691;PMS5003;58267;51.156;17.044;2024-01-30T06:25:42;67;65;
70691;PMS5003;58267;51.156;17.044;2024-01-30T06:28:08;76;72;
70691;PMS5003;58267;51.156;17.044;2024-01-30T06:30:33;79;73;
70691;PMS5003;58267;51.156;17.044;2024-01-30T06:32:59;76;70;
70691;PMS5003;58267;51.156;17.044;2024-01-30T06:35:24;66;62;
70691;PMS5003;58267;51.156;17.044;2024-01-30T06:37:50;64;63;
70691;PMS5003;58267;51.156;17.044;2024-01-30T06:40:15;73;68;
70691;PMS5003;58267;51.156;17.044;2024-01-30T06:42:40;70;67;
70691;PMS5003;58267;51.156;17.044;2024-01-30T06:45:06;67;63;
70691;PMS5003;58267;51.156;17.044;2024-01-30T06:47:31;70;66;
70691;PMS5003;58267;51.156;17.044;2024-01-30T06:49:57;71;64;
70691;PMS5003;58267;51.156;17.044;2024-01-30T06:52:23;72;68;
70691;PMS5003;58267;51.156;17.044;2024-01-30T06:54:48;69;65;
70691;PMS5003;58267;51.156;17.044;2024-01-30T06:57:13;65;61;
70691;PMS5003;58267;51.156;17.044;2024-01-30T06:59:38;71;68;
70691;PMS5003;58267;51.156;17.044;2024-01-30T07:02:04;68;62;
70691;PMS5003;58267;51.156;17.044;2024-01-30T07:04:29;68;63;
70691;PMS5003;58267;51.156;17.044;2024-01-30T07:06:54;51;48;
70691;PMS5003;58267;51.156;17.044;2024-01-30T07:09:20;67;63;
70691;PMS5003;58267;51.156;17.044;2024-01-30T07:11:45;66;61;
70691;PMS5003;58267;51.156;17.044;2024-01-30T07:14:11;59;55;
70691;PMS5003;58267;51.156;17.044;2024-01-30T07:16:36;61;57;
70691;PMS5003;58267;51.156;17.044;2024-01-30T07:19:01;56;54;
70691;PMS5003;58267;51.156;17.044;2024-01-30T07:21:27;63;57;
70691;PMS5003;58267;51.156;17.044;2024-01-30T07:23:53;59;58;
70691;PMS5003;58267;51.156;17.044;2024-01-30T07:26:19;55;54;
70691;PMS5003;58267;51.156;17.044;2024-01-30T07:28:44;62;52;
70691;PMS5003;58267;51.156;17.044;2024-01-30T07:31:09;56;52;
70691;PMS5003;58267;51.156;17.044;2024-01-30T07:33:35;54;51;
70691;PMS5003;58267;51.156;17.044;2024-01-30T07:36:01;60;55;
70691;PMS5003;58267;51.156;17.044;2024-01-30T07:38:26;51;50;
70691;PMS5003;58267;51.156;17.044;2024-01-30T07:40:51;55;51;
70691;PMS5003;58267;51.156;17.044;2024-01-30T07:43:16;53;49;
70691;PMS5003;58267;51.156;17.044;2024-01-30T07:45:43;43;40;
70691;PMS5003;58267;51.156;17.044;2024-01-30T07:48:08;47;45;
70691;PMS5003;58267;51.156;17.044;2024-01-30T07:50:34;47;46;
70691;PMS5003;58267;51.156;17.044;2024-01-30T07:52:59;51;46;
70691;PMS5003;58267;51.156;17.044;2024-01-30T07:55:24;47;43;
70691;PMS5003;58267;51.156;17.044;2024-01-30T07:57:50;53;45;
70691;PMS5003;58267;51.156;17.044;2024-01-30T08:00:15;56;50;
70691;PMS5003;58267;51.156;17.044;2024-01-30T08:02:40;50;47;
70691;PMS5003;58267;51.156;17.044;2024-01-30T08:05:06;51;50;
70691;PMS5003;58267;51.156;17.044;2024-01-30T08:07:32;49;45;
70691;PMS5003;58267;51.156;17.044;2024-01-30T08:09:57;48;46;
70691;PMS5003;58267;51.156;17.044;2024-01-30T08:12:23;47;44;
70691;PMS5003;58267;51.156;17.044;2024-01-30T08:14:49;50;50;
70691;PMS5003;58267;51.156;17.044;2024-01-30T08:17:14;46;45;
70691;PMS5003;58267;51.156;17.044;2024-01-30T08:19:39;52;47;
70691;PMS5003;58267;51.156;17.044;2024-01-30T08:22:05;43;40;
70691;PMS5003;58267;51.156;17.044;2024-01-30T08:24:30;46;43;
70691;PMS5003;58267;51.156;17.044;2024-01-30T08:26:56;44;41;
70691;PMS5003;58267;51.156;17.044;2024-01-30T08:29:22;48;45;
70691;PMS5003;58267;51.156;17.044;2024-01-30T08:31:48;41;39;
70691;PMS5003;58267;51.156;17.044;2024-01-30T08:34:13;39;39;
70691;PMS5003;58267;51.156;17.044;2024-01-30T08:36:39;39;37;
70691;PMS5003;58267;51.156;17.044;2024-01-30T08:39:04;44;40;
70691;PMS5003;58267;51.156;17.044;2024-01-30T08:41:30;40;38;
70691;PMS5003;58267;51.156;17.044;2024-01-30T08:43:55;38;36;
70691;PMS5003;58267;51.156;17.044;2024-01-30T08:46:21;36;33;
70691;PMS5003;58267;51.156;17.044;2024-01-30T08:48:46;47;42;
70691;PMS5003;58267;51.156;17.044;2024-01-30T08:51:11;41;39;
70691;PMS5003;58267;51.156;17.044;2024-01-30T08:53:37;46;38;
70691;PMS5003;58267;51.156;17.044;2024-01-30T08:56:02;40;38;
70691;PMS5003;58267;51.156;17.044;2024-01-30T08:58:28;40;36;
70691;PMS5003;58267;51.156;17.044;2024-01-30T09:00:53;30;29;
70691;PMS5003;58267;51.156;17.044;2024-01-30T09:03:18;31;29;
70691;PMS5003;58267;51.156;17.044;2024-01-30T09:05:44;34;31;
70691;PMS5003;58267;51.156;17.044;2024-01-30T09:08:09;31;30;
70691;PMS5003;58267;51.156;17.044;2024-01-30T09:10:34;32;28;
70691;PMS5003;58267;51.156;17.044;2024-01-30T09:12:59;14;14;
70691;PMS5003;58267;51.156;17.044;2024-01-30T09:15:25;31;27;
70691;PMS5003;58267;51.156;17.044;2024-01-30T09:17:50;24;24;
70691;PMS5003;58267;51.156;17.044;2024-01-30T09:20:16;21;21;
70691;PMS5003;58267;51.156;17.044;2024-01-30T09:22:42;23;22;
70691;PMS5003;58267;51.156;17.044;2024-01-30T09:25:07;28;26;
70691;PMS5003;58267;51.156;17.044;2024-01-30T09:27:32;24;22;
70691;PMS5003;58267;51.156;17.044;2024-01-30T09:29:58;25;25;
70691;PMS5003;58267;51.156;17.044;2024-01-30T09:32:24;25;22;
70691;PMS5003;58267;51.156;17.044;2024-01-30T09:34:49;22;20;
70691;PMS5003;58267;51.156;17.044;2024-01-30T09:37:15;27;25;
70691;PMS5003;58267;51.156;17.044;2024-01-30T09:39:41;27;25;
70691;PMS5003;58267;51.156;17.044;2024-01-30T09:42:09;23;22;
70691;PMS5003;58267;51.156;17.044;2024-01-30T09:44:32;22;21;
70691;PMS5003;58267;51.156;17.044;2024-01-30T09:46:57;25;23;
70691;PMS5003;58267;51.156;17.044;2024-01-30T09:49:23;21;19;
70691;PMS5003;58267;51.156;17.044;2024-01-30T09:51:48;24;22;
70691;PMS5003;58267;51.156;17.044;2024-01-30T09:54:14;20;19;
70691;PMS5003;58267;51.156;17.044;2024-01-30T09:56:40;23;21;
70691;PMS5003;58267;51.156;17.044;2024-01-30T09:59:05;21;20;
70691;PMS5003;58267;51.156;17.044;2024-01-30T10:01:31;22;21;
70691;PMS5003;58267;51.156;17.044;2024-01-30T10:03:56;21;19;
70691;PMS5003;58267;51.156;17.044;2024-01-30T10:06:22;22;21;
70691;PMS5003;58267;51.156;17.044;2024-01-30T10:08:47;19;18;
70691;PMS5003;58267;51.156;17.044;2024-01-30T10:11:13;22;21;
70691;PMS5003;58267;51.156;17.044;2024-01-30T10:13:39;23;22;
70691;PMS5003;58267;51.156;17.044;2024-01-30T10:16:04;18;17;
70691;PMS5003;58267;51.156;17.044;2024-01-30T10:18:30;21;20;
70691;PMS5003;58267;51.156;17.044;2024-01-30T10:20:55;18;17;
70691;PMS5003;58267;51.156;17.044;2024-01-30T10:23:21;18;18;
70691;PMS5003;58267;51.156;17.044;2024-01-30T10:25:46;22;20;
70691;PMS5003;58267;51.156;17.044;2024-01-30T10:28:11;17;17;
70691;PMS5003;58267;51.156;17.044;2024-01-30T10:30:37;20;20;
70691;PMS5003;58267;51.156;17.044;2024-01-30T10:33:03;23;20;
70691;PMS5003;58267;51.156;17.044;2024-01-30T10:35:28;16;15;
70691;PMS5003;58267;51.156;17.044;2024-01-30T10:37:53;18;17;
70691;PMS5003;58267;51.156;17.044;2024-01-30T10:40:19;23;22;
70691;PMS5003;58267;51.156;17.044;2024-01-30T10:42:44;20;19;
70691;PMS5003;58267;51.156;17.044;2024-01-30T10:45:10;16;16;
70691;PMS5003;58267;51.156;17.044;2024-01-30T10:47:35;22;21;
70691;PMS5003;58267;51.156;17.044;2024-01-30T10:50:01;21;18;
70691;PMS5003;58267;51.156;17.044;2024-01-30T10:52:27;22;22;
70691;PMS5003;58267;51.156;17.044;2024-01-30T10:54:53;23;21;
70691;PMS5003;58267;51.156;17.044;2024-01-30T10:57:18;18;17;
70691;PMS5003;58267;51.156;17.044;2024-01-30T10:59:43;18;17;
70691;PMS5003;58267;51.156;17.044;2024-01-30T11:02:08;19;19;
70691;PMS5003;58267;51.156;17.044;2024-01-30T11:04:36;20;19;
70691;PMS5003;58267;51.156;17.044;2024-01-30T11:06:59;17;14;
70691;PMS5003;58267;51.156;17.044;2024-01-30T11:09:24;19;18;
70691;PMS5003;58267;51.156;17.044;2024-01-30T11:11:50;20;19;
70691;PMS5003;58267;51.156;17.044;2024-01-30T11:14:15;19;19;
70691;PMS5003;58267;51.156;17.044;2024-01-30T11:16:41;21;20;
70691;PMS5003;58267;51.156;17.044;2024-01-30T11:19:10;23;22;
70691;PMS5003;58267;51.156;17.044;2024-01-30T11:21:32;22;21;
70691;PMS5003;58267;51.156;17.044;2024-01-30T11:23:57;18;17;
70691;PMS5003;58267;51.156;17.044;2024-01-30T11:26:23;20;20;
70691;PMS5003;58267;51.156;17.044;2024-01-30T11:28:52;18;17;
70691;PMS5003;58267;51.156;17.044;2024-01-30T11:31:13;21;20;
70691;PMS5003;58267;51.156;17.044;2024-01-30T11:33:38;17;16;
70691;PMS5003;58267;51.156;17.044;2024-01-30T11:36:04;17;15;
70691;PMS5003;58267;51.156;17.044;2024-01-30T11:38:29;16;16;
70691;PMS5003;58267;51.156;17.044;2024-01-30T11:40:55;21;20;
70691;PMS5003;58267;51.156;17.044;2024-01-30T11:43:20;20;19;
70691;PMS5003;58267;51.156;17.044;2024-01-30T11:45:46;17;17;
70691;PMS5003;58267;51.156;17.044;2024-01-30T11:48:11;21;19;
70691;PMS5003;58267;51.156;17.044;2024-01-30T11:50:37;18;18;
70691;PMS5003;58267;51.156;17.044;2024-01-30T11:53:02;21;20;
70691;PMS5003;58267;51.156;17.044;2024-01-30T11:55:28;18;17;
70691;PMS5003;58267;51.156;17.044;2024-01-30T11:57:54;19;16;
70691;PMS5003;58267;51.156;17.044;2024-01-30T12:00:19;18;18;
70691;PMS5003;58267;51.156;17.044;2024-01-30T12:02:48;18;17;
70691;PMS5003;58267;51.156;17.044;2024-01-30T12:05:10;21;17;
70691;PMS5003;58267;51.156;17.044;2024-01-30T12:07:35;21;20;
70691;PMS5003;58267;51.156;17.044;2024-01-30T12:10:00;24;20;
70691;PMS5003;58267;51.156;17.044;2024-01-30T12:12:26;18;17;
70691;PMS5003;58267;51.156;17.044;2024-01-30T12:14:50;18;17;
70691;PMS5003;58267;51.156;17.044;2024-01-30T12:19:41;16;15;
70691;PMS5003;58267;51.156;17.044;2024-01-30T12:22:07;22;21;
70691;PMS5003;58267;51.156;17.044;2024-01-30T12:24:32;21;19;
70691;PMS5003;58267;51.156;17.044;2024-01-30T12:26:58;19;18;
70691;PMS5003;58267;51.156;17.044;2024-01-30T12:29:23;19;17;
70691;PMS5003;58267;51.156;17.044;2024-01-30T12:31:48;23;21;
70691;PMS5003;58267;51.156;17.044;2024-01-30T12:34:13;19;18;
70691;PMS5003;58267;51.156;17.044;2024-01-30T12:36:39;18;17;
70691;PMS5003;58267;51.156;17.044;2024-01-30T12:39:04;21;18;
70691;PMS5003;58267;51.156;17.044;2024-01-30T12:41:30;20;20;
70691;PMS5003;58267;51.156;17.044;2024-01-30T12:43:56;21;21;
70691;PMS5003;58267;51.156;17.044;2024-01-30T12:46:21;21;20;
70691;PMS5003;58267;51.156;17.044;2024-01-30T12:48:47;21;20;
70691;PMS5003;58267;51.156;17.044;2024-01-30T12:51:12;20;20;
70691;PMS5003;58267;51.156;17.044;2024-01-30T12:53:37;16;16;
70691;PMS5003;58267;51.156;17.044;2024-01-30T12:56:03;18;18;
70691;PMS5003;58267;51.156;17.044;2024-01-30T12:58:29;18;18;
70691;PMS5003;58267;51.156;17.044;2024-01-30T13:00:56;16;16;
70691;PMS5003;58267;51.156;17.044;2024-01-30T13:03:22;20;18;
70691;PMS5003;58267;51.156;17.044;2024-01-30T13:05:48;19;17;
70691;PMS5003;58267;51.156;17.044;2024-01-30T13:08:13;22;22;
70691;PMS5003;58267;51.156;17.044;2024-01-30T13:10:39;22;22;
70691;PMS5003;58267;51.156;17.044;2024-01-30T13:13:04;24;23;
70691;PMS5003;58267;51.156;17.044;2024-01-30T13:15:30;27;26;
70691;PMS5003;58267;51.156;17.044;2024-01-30T13:17:55;25;23;
70691;PMS5003;58267;51.156;17.044;2024-01-30T13:20:21;24;21;
70691;PMS5003;58267;51.156;17.044;2024-01-30T13:22:47;20;20;
70691;PMS5003;58267;51.156;17.044;2024-01-30T13:25:12;24;23;
70691;PMS5003;58267;51.156;17.044;2024-01-30T13:27:38;18;18;
70691;PMS5003;58267;51.156;17.044;2024-01-30T13:30:03;21;19;
70691;PMS5003;58267;51.156;17.044;2024-01-30T13:32:29;21;19;
70691;PMS5003;58267;51.156;17.044;2024-01-30T13:34:54;22;20;
70691;PMS5003;58267;51.156;17.044;2024-01-30T13:37:19;26;26;
70691;PMS5003;58267;51.156;17.044;2024-01-30T13:39:45;21;20;
70691;PMS5003;58267;51.156;17.044;2024-01-30T13:42:10;24;23;
70691;PMS5003;58267;51.156;17.044;2024-01-30T13:44:35;27;25;
70691;PMS5003;58267;51.156;17.044;2024-01-30T13:47:01;26;24;
70691;PMS5003;58267;51.156;17.044;2024-01-30T13:49:27;25;24;
70691;PMS5003;58267;51.156;17.044;2024-01-30T13:51:52;25;25;
70691;PMS5003;58267;51.156;17.044;2024-01-30T13:54:18;25;23;
70691;PMS5003;58267;51.156;17.044;2024-01-30T13:56:43;26;26;
70691;PMS5003;58267;51.156;17.044;2024-01-30T13:59:09;26;24;
70691;PMS5003;58267;51.156;17.044;2024-01-30T14:01:34;26;24;
70691;PMS5003;58267;51.156;17.044;2024-01-30T14:03:59;25;24;
70691;PMS5003;58267;51.156;17.044;2024-01-30T14:06:25;25;24;
70691;PMS5003;58267;51.156;17.044;2024-01-30T14:08:50;29;28;
70691;PMS5003;58267;51.156;17.044;2024-01-30T14:11:16;31;30;
70691;PMS5003;58267;51.156;17.044;2024-01-30T14:13:42;27;27;
70691;PMS5003;58267;51.156;17.044;2024-01-30T14:18:33;25;25;
70691;PMS5003;58267;51.156;17.044;2024-01-30T14:20:58;31;26;
70691;PMS5003;58267;51.156;17.044;2024-01-30T14:23:23;33;27;
70691;PMS5003;58267;51.156;17.044;2024-01-30T14:25:49;28;27;
70691;PMS5003;58267;51.156;17.044;2024-01-30T14:28:15;31;28;
70691;PMS5003;58267;51.156;17.044;2024-01-30T14:30:41;27;27;
70691;PMS5003;58267;51.156;17.044;2024-01-30T14:33:06;28;26;
70691;PMS5003;58267;51.156;17.044;2024-01-30T14:35:32;31;28;
70691;PMS5003;58267;51.156;17.044;2024-01-30T14:37:57;36;29;
70691;PMS5003;58267;51.156;17.044;2024-01-30T14:40:22;26;25;
70691;PMS5003;58267;51.156;17.044;2024-01-30T14:42:48;40;36;
70691;PMS5003;58267;51.156;17.044;2024-01-30T14:45:13;31;29;
70691;PMS5003;58267;51.156;17.044;2024-01-30T14:47:39;39;34;
70691;PMS5003;58267;51.156;17.044;2024-01-30T14:50:04;35;34;
70691;PMS5003;58267;51.156;17.044;2024-01-30T14:52:30;35;32;
70691;PMS5003;58267;51.156;17.044;2024-01-30T14:54:55;39;33;
70691;PMS5003;58267;51.156;17.044;2024-01-30T14:57:21;34;33;
70691;PMS5003;58267;51.156;17.044;2024-01-30T14:59:47;33;31;
70691;PMS5003;58267;51.156;17.044;2024-01-30T15:02:12;34;32;
70691;PMS5003;58267;51.156;17.044;2024-01-30T15:04:38;33;32;
70691;PMS5003;58267;51.156;17.044;2024-01-30T15:07:03;35;33;
70691;PMS5003;58267;51.156;17.044;2024-01-30T15:09:29;34;31;
70691;PMS5003;58267;51.156;17.044;2024-01-30T15:11:54;33;33;
70691;PMS5003;58267;51.156;17.044;2024-01-30T15:14:20;29;27;
70691;PMS5003;58267;51.156;17.044;2024-01-30T15:16:45;34;32;
70691;PMS5003;58267;51.156;17.044;2024-01-30T15:19:11;32;32;
70691;PMS5003;58267;51.156;17.044;2024-01-30T15:21:37;31;30;
70691;PMS5003;58267;51.156;17.044;2024-01-30T15:24:02;27;25;
70691;PMS5003;58267;51.156;17.044;2024-01-30T15:26:29;33;32;
70691;PMS5003;58267;51.156;17.044;2024-01-30T15:28:54;34;32;
70691;PMS5003;58267;51.156;17.044;2024-01-30T15:31:20;35;35;
70691;PMS5003;58267;51.156;17.044;2024-01-30T15:33:45;33;32;
70691;PMS5003;58267;51.156;17.044;2024-01-30T15:36:11;36;34;
70691;PMS5003;58267;51.156;17.044;2024-01-30T15:38:36;43;42;
70691;PMS5003;58267;51.156;17.044;2024-01-30T15:41:01;36;34;
70691;PMS5003;58267;51.156;17.044;2024-01-30T15:43:27;37;34;
70691;PMS5003;58267;51.156;17.044;2024-01-30T15:45:53;41;39;
70691;PMS5003;58267;51.156;17.044;2024-01-30T15:48:18;37;33;
70691;PMS5003;58267;51.156;17.044;2024-01-30T15:50:44;44;39;
70691;PMS5003;58267;51.156;17.044;2024-01-30T15:53:09;41;40;